sensor_id;sensor_type;location;lat;lon;timestamp;pressure;altitude;pressure_sealevel;temperature;humidity
17950;BME280;9100;48.700;9.316;2023-06-14T00:00:19;97272;;;18.64;50.638
17950;BME280;9100;48.700;9.316;2023-06-14T00:00:58;97272.40000000001;;;18.61;50.688
17950;BME280;9100;48.700;9.316;2023-06-14T00:01:19;97279.2;;;18.62;50.581
17950;BME280;9100;48.700;9.316;2023-06-14T00:02:19;97279.9;;;18.63;50.593
17950;BME280;9100;48.700;9.316;2023-06-14T00:03:19;97278.4;;;18.62;50.732
17950;BME280;9100;48.700;9.316;2023-06-14T00:04:19;97278.9;;;18.59;51.119
17950;BME280;9100;48.700;9.316;2023-06-14T00:05:19;97282.5;;;18.58;51.389
17950;BME280;9100;48.700;9.316;2023-06-14T00:05:58;97285.5;;;18.55;51.677
17950;BME280;9100;48.700;9.316;2023-06-14T00:06:19;97278.5;;;18.55;51.797
17950;BME280;9100;48.700;9.316;2023-06-14T00:07:21;97279.3;;;18.56;51.731
17950;BME280;9100;48.700;9.316;2023-06-14T00:08:19;97280.9;;;18.57;52.123
17950;BME280;9100;48.700;9.316;2023-06-14T00:09:19;97279.3;;;18.56;51.948
17950;BME280;9100;48.700;9.316;2023-06-14T00:10:19;97276.2;;;18.54;52.065
17950;BME280;9100;48.700;9.316;2023-06-14T00:10:58;97272;;;18.53;52.064
17950;BME280;9100;48.700;9.316;2023-06-14T00:11:19;97273.8;;;18.52;51.891
17950;BME280;9100;48.700;9.316;2023-06-14T00:12:19;97276.4;;;18.52;52.216
17950;BME280;9100;48.700;9.316;2023-06-14T00:13:19;97275.59999999999;;;18.52;52.247
17950;BME280;9100;48.700;9.316;2023-06-14T00:14:19;97282.6;;;18.51;52.464
17950;BME280;9100;48.700;9.316;2023-06-14T00:15:58;97271.90000000001;;;18.48;52.557
17950;BME280;9100;48.700;9.316;2023-06-14T00:16:19;97272.7;;;18.48;52.492
17950;BME280;9100;48.700;9.316;2023-06-14T00:17:19;97261.6;;;18.48;52.427
17950;BME280;9100;48.700;9.316;2023-06-14T00:18:19;97267.8;;;18.47;52.23
17950;BME280;9100;48.700;9.316;2023-06-14T00:19:19;97272.40000000001;;;18.45;52.391
17950;BME280;9100;48.700;9.316;2023-06-14T00:20:19;97270.8;;;18.43;52.854
17950;BME280;9100;48.700;9.316;2023-06-14T00:20:58;97264.3;;;18.41;52.754
17950;BME280;9100;48.700;9.316;2023-06-14T00:21:19;97267.7;;;18.41;52.766
17950;BME280;9100;48.700;9.316;2023-06-14T00:22:19;97272.1;;;18.41;52.765
17950;BME280;9100;48.700;9.316;2023-06-14T00:23:19;97280.1;;;18.39;52.894
17950;BME280;9100;48.700;9.316;2023-06-14T00:24:19;97268.2;;;18.38;53.098
17950;BME280;9100;48.700;9.316;2023-06-14T00:25:19;97269.2;;;18.37;53.26
17950;BME280;9100;48.700;9.316;2023-06-14T00:25:58;97273.6;;;18.37;53.54
17950;BME280;9100;48.700;9.316;2023-06-14T00:26:19;97276.2;;;18.37;53.528
17950;BME280;9100;48.700;9.316;2023-06-14T00:27:19;97275.40000000001;;;18.36;53.421
17950;BME280;9100;48.700;9.316;2023-06-14T00:28:19;97278;;;18.36;53.464
17950;BME280;9100;48.700;9.316;2023-06-14T00:29:19;97277.5;;;18.34;53.449
17950;BME280;9100;48.700;9.316;2023-06-14T00:30:19;97279.2;;;18.34;53.363
17950;BME280;9100;48.700;9.316;2023-06-14T00:30:58;97284.7;;;18.32;53.393
17950;BME280;9100;48.700;9.316;2023-06-14T00:31:19;97280.3;;;18.33;53.546
17950;BME280;9100;48.700;9.316;2023-06-14T00:32:19;97284.1;;;18.3;53.823
17950;BME280;9100;48.700;9.316;2023-06-14T00:33:19;97283.3;;;18.3;53.975
17950;BME280;9100;48.700;9.316;2023-06-14T00:34:19;97282.8;;;18.28;53.908
17950;BME280;9100;48.700;9.316;2023-06-14T00:35:19;97279.9;;;18.24;53.74
17950;BME280;9100;48.700;9.316;2023-06-14T00:35:58;97278.5;;;18.22;53.65
17950;BME280;9100;48.700;9.316;2023-06-14T00:36:19;97278.3;;;18.23;53.858
17950;BME280;9100;48.700;9.316;2023-06-14T00:37:19;97274.2;;;18.22;54.333
17950;BME280;9100;48.700;9.316;2023-06-14T00:38:19;97276.8;;;18.22;54.322
17950;BME280;9100;48.700;9.316;2023-06-14T00:39:19;97272.79999999999;;;18.2;54.503
17950;BME280;9100;48.700;9.316;2023-06-14T00:40:19;97271.8;;;18.21;54.592
17950;BME280;9100;48.700;9.316;2023-06-14T00:40:58;97277.20000000001;;;18.19;54.741
17950;BME280;9100;48.700;9.316;2023-06-14T00:41:19;97274.59999999999;;;18.19;54.86
17950;BME280;9100;48.700;9.316;2023-06-14T00:42:23;97276.70000000001;;;18.17;54.663
17950;BME280;9100;48.700;9.316;2023-06-14T00:43:19;97277.70000000001;;;18.16;54.662
17950;BME280;9100;48.700;9.316;2023-06-14T00:44:19;97269.4;;;18.14;54.768
17950;BME280;9100;48.700;9.316;2023-06-14T00:45:19;97266.2;;;18.12;54.7
17950;BME280;9100;48.700;9.316;2023-06-14T00:45:58;97276.8;;;18.11;55.228
17950;BME280;9100;48.700;9.316;2023-06-14T00:46:19;97268.3;;;18.1;55.401
17950;BME280;9100;48.700;9.316;2023-06-14T00:47:19;97271.6;;;18.11;55.466
17950;BME280;9100;48.700;9.316;2023-06-14T00:48:19;97271.1;;;18.09;55.409
17950;BME280;9100;48.700;9.316;2023-06-14T00:49:19;97269.5;;;18.08;55.506
17950;BME280;9100;48.700;9.316;2023-06-14T00:50:19;97276.5;;;18.07;55.331
17950;BME280;9100;48.700;9.316;2023-06-14T00:50:58;97271.6;;;18.06;55.319
17950;BME280;9100;48.700;9.316;2023-06-14T00:51:19;97270.8;;;18.05;55.47
17950;BME280;9100;48.700;9.316;2023-06-14T00:52:19;97273.40000000001;;;18.05;55.523
17950;BME280;9100;48.700;9.316;2023-06-14T00:53:19;97278.5;;;18.05;55.945
17950;BME280;9100;48.700;9.316;2023-06-14T00:54:19;97279.6;;;18.04;56.097
17950;BME280;9100;48.700;9.316;2023-06-14T00:55:19;97278.5;;;18.05;56.097
17950;BME280;9100;48.700;9.316;2023-06-14T00:55:58;97274.40000000001;;;18.04;56.303
17950;BME280;9100;48.700;9.316;2023-06-14T00:56:19;97278;;;18.03;56.451
17950;BME280;9100;48.700;9.316;2023-06-14T00:57:19;97280.6;;;18.03;56.43
17950;BME280;9100;48.700;9.316;2023-06-14T00:58:19;97276.4;;;18.02;56.612
17950;BME280;9100;48.700;9.316;2023-06-14T00:59:19;97272.29999999999;;;18.01;56.729
17950;BME280;9100;48.700;9.316;2023-06-14T01:00:19;97274.3;;;17.99;56.641
17950;BME280;9100;48.700;9.316;2023-06-14T01:00:58;97277.09999999999;;;17.98;56.467
17950;BME280;9100;48.700;9.316;2023-06-14T01:01:19;97274.8;;;17.96;56.626
17950;BME280;9100;48.700;9.316;2023-06-14T01:02:19;97278.4;;;17.95;56.776
17950;BME280;9100;48.700;9.316;2023-06-14T01:03:19;97274.2;;;17.94;56.656
17950;BME280;9100;48.700;9.316;2023-06-14T01:04:19;97275.3;;;17.93;56.839
17950;BME280;9100;48.700;9.316;2023-06-14T01:05:19;97282.4;;;17.91;57.01
17950;BME280;9100;48.700;9.316;2023-06-14T01:05:59;97279.3;;;17.89;56.866
17950;BME280;9100;48.700;9.316;2023-06-14T01:06:21;97277.8;;;17.88;56.896
17950;BME280;9100;48.700;9.316;2023-06-14T01:07:23;97277.4;;;17.84;56.611
17950;BME280;9100;48.700;9.316;2023-06-14T01:08:21;97278.7;;;17.82;56.554
17950;BME280;9100;48.700;9.316;2023-06-14T01:09:21;97275.2;;;17.76;56.872
17950;BME280;9100;48.700;9.316;2023-06-14T01:10:21;97277.5;;;17.73;57.126
17950;BME280;9100;48.700;9.316;2023-06-14T01:11:00;97275.9;;;17.72;57.352
17950;BME280;9100;48.700;9.316;2023-06-14T01:11:22;97276.70000000001;;;17.72;57.277
17950;BME280;9100;48.700;9.316;2023-06-14T01:12:21;97278.5;;;17.72;57.125
17950;BME280;9100;48.700;9.316;2023-06-14T01:13:20;97283.7;;;17.72;56.908
17950;BME280;9100;48.700;9.316;2023-06-14T01:14:19;97278.5;;;17.72;57.232
17950;BME280;9100;48.700;9.316;2023-06-14T01:15:19;97274.1;;;17.72;57.364
17950;BME280;9100;48.700;9.316;2023-06-14T01:15:58;97273.29999999999;;;17.72;57.319
17950;BME280;9100;48.700;9.316;2023-06-14T01:16:19;97273.29999999999;;;17.72;57.298
17950;BME280;9100;48.700;9.316;2023-06-14T01:17:19;97274.1;;;17.72;57.666
17950;BME280;9100;48.700;9.316;2023-06-14T01:18:19;97275.9;;;17.72;57.827
17950;BME280;9100;48.700;9.316;2023-06-14T01:19:19;97274.1;;;17.72;57.817
17950;BME280;9100;48.700;9.316;2023-06-14T01:20:19;97273.8;;;17.69;57.683
17950;BME280;9100;48.700;9.316;2023-06-14T01:20:58;97272.7;;;17.65;57.732
17950;BME280;9100;48.700;9.316;2023-06-14T01:21:19;97277.9;;;17.65;57.732
17950;BME280;9100;48.700;9.316;2023-06-14T01:22:19;97279.1;;;17.62;57.901
17950;BME280;9100;48.700;9.316;2023-06-14T01:23:20;97280.4;;;17.6;58.156
17950;BME280;9100;48.700;9.316;2023-06-14T01:24:19;97276.4;;;17.57;58.24
17950;BME280;9100;48.700;9.316;2023-06-14T01:25:19;97281.8;;;17.56;58.529
17950;BME280;9100;48.700;9.316;2023-06-14T01:25:58;97282;;;17.54;58.755
17950;BME280;9100;48.700;9.316;2023-06-14T01:26:19;97282.8;;;17.55;58.917
17950;BME280;9100;48.700;9.316;2023-06-14T01:27:19;97271.7;;;17.54;59.23
17950;BME280;9100;48.700;9.316;2023-06-14T01:28:20;97271.7;;;17.54;59.565
17950;BME280;9100;48.700;9.316;2023-06-14T01:29:19;97277.3;;;17.51;59.821
17950;BME280;9100;48.700;9.316;2023-06-14T01:30:19;97276.5;;;17.51;60.359
17950;BME280;9100;48.700;9.316;2023-06-14T01:30:59;97284.5;;;17.49;60.486
17950;BME280;9100;48.700;9.316;2023-06-14T01:31:19;97285.29999999999;;;17.5;60.488
17950;BME280;9100;48.700;9.316;2023-06-14T01:32:19;97280.1;;;17.5;61.126
17950;BME280;9100;48.700;9.316;2023-06-14T01:33:19;97284.5;;;17.49;61.318
17950;BME280;9100;48.700;9.316;2023-06-14T01:34:19;97282.2;;;17.48;61.479
17950;BME280;9100;48.700;9.316;2023-06-14T01:35:19;97286.6;;;17.47;61.413
17950;BME280;9100;48.700;9.316;2023-06-14T01:35:58;97279.1;;;17.45;61.174
17950;BME280;9100;48.700;9.316;2023-06-14T01:36:19;97279.8;;;17.46;61.142
17950;BME280;9100;48.700;9.316;2023-06-14T01:37:19;97275.40000000001;;;17.46;61.187
17950;BME280;9100;48.700;9.316;2023-06-14T01:38:19;97282.4;;;17.46;60.839
17950;BME280;9100;48.700;9.316;2023-06-14T01:39:19;97279.8;;;17.46;60.245
17950;BME280;9100;48.700;9.316;2023-06-14T01:40:19;97273.1;;;17.45;60.503
17950;BME280;9100;48.700;9.316;2023-06-14T01:40:58;97281.9;;;17.44;60.383
17950;BME280;9100;48.700;9.316;2023-06-14T01:41:19;97283.4;;;17.45;60.298
17950;BME280;9100;48.700;9.316;2023-06-14T01:42:19;97273.1;;;17.45;60.287
17950;BME280;9100;48.700;9.316;2023-06-14T01:43:19;97280.9;;;17.45;60.341
17950;BME280;9100;48.700;9.316;2023-06-14T01:44:19;97275.09999999999;;;17.43;60.457
17950;BME280;9100;48.700;9.316;2023-06-14T01:45:19;97280.5;;;17.41;59.916
17950;BME280;9100;48.700;9.316;2023-06-14T01:45:58;97277.59999999999;;;17.38;59.521
17950;BME280;9100;48.700;9.316;2023-06-14T01:46:19;97278.4;;;17.38;59.641
17950;BME280;9100;48.700;9.316;2023-06-14T01:47:19;97283.6;;;17.38;60.019
17950;BME280;9100;48.700;9.316;2023-06-14T01:48:19;97282;;;17.37;60.008
17950;BME280;9100;48.700;9.316;2023-06-14T01:49:20;97275.3;;;17.36;60.275
17950;BME280;9100;48.700;9.316;2023-06-14T01:50:19;97277.09999999999;;;17.36;60.566
17950;BME280;9100;48.700;9.316;2023-06-14T01:50:58;97272.1;;;17.34;60.683
17950;BME280;9100;48.700;9.316;2023-06-14T01:51:19;97279.3;;;17.32;60.734
17950;BME280;9100;48.700;9.316;2023-06-14T01:52:19;97279.3;;;17.32;60.647
17950;BME280;9100;48.700;9.316;2023-06-14T01:53:19;97281.1;;;17.32;60.68
17950;BME280;9100;48.700;9.316;2023-06-14T01:54:19;97277.20000000001;;;17.29;60.989
17950;BME280;9100;48.700;9.316;2023-06-14T01:55:19;97280;;;17.28;60.555
17950;BME280;9100;48.700;9.316;2023-06-14T01:55:58;97279.7;;;17.24;60.508
17950;BME280;9100;48.700;9.316;2023-06-14T01:56:19;97276.5;;;17.22;60.418
17950;BME280;9100;48.700;9.316;2023-06-14T01:57:19;97278.59999999999;;;17.2;60.405
17950;BME280;9100;48.700;9.316;2023-06-14T01:58:19;97280.6;;;17.18;60.607
17950;BME280;9100;48.700;9.316;2023-06-14T01:59:19;97278.2;;;17.17;60.886
17950;BME280;9100;48.700;9.316;2023-06-14T02:00:19;97284.7;;;17.14;61.195
17950;BME280;9100;48.700;9.316;2023-06-14T02:00:58;97282.5;;;17.11;61.298
17950;BME280;9100;48.700;9.316;2023-06-14T02:01:19;97279.8;;;17.06;61.346
17950;BME280;9100;48.700;9.316;2023-06-14T02:02:19;97286.1;;;17.1;61.428
17950;BME280;9100;48.700;9.316;2023-06-14T02:03:19;97276.8;;;17.09;61.792
17950;BME280;9100;48.700;9.316;2023-06-14T02:04:19;97288.2;;;17.08;61.749
17950;BME280;9100;48.700;9.316;2023-06-14T02:05:19;97280.1;;;17.05;62.174
17950;BME280;9100;48.700;9.316;2023-06-14T02:05:58;97288;;;17.03;62.075
17950;BME280;9100;48.700;9.316;2023-06-14T02:06:19;97282.9;;;17.03;61.945
17950;BME280;9100;48.700;9.316;2023-06-14T02:07:19;97279.7;;;17.01;61.781
17950;BME280;9100;48.700;9.316;2023-06-14T02:08:19;97283.1;;;17.02;61.901
17950;BME280;9100;48.700;9.316;2023-06-14T02:09:19;97279.7;;;17.01;62.029
17950;BME280;9100;48.700;9.316;2023-06-14T02:10:20;97281.5;;;17.01;62.104
17950;BME280;9100;48.700;9.316;2023-06-14T02:10:58;97279.2;;;16.99;62.124
17950;BME280;9100;48.700;9.316;2023-06-14T02:11:19;97284.3;;;16.99;62.253
17950;BME280;9100;48.700;9.316;2023-06-14T02:12:19;97283.6;;;16.98;62.694
17950;BME280;9100;48.700;9.316;2023-06-14T02:13:19;97282.8;;;16.98;62.479
17950;BME280;9100;48.700;9.316;2023-06-14T02:14:19;97287.90000000001;;;16.98;62.273
17950;BME280;9100;48.700;9.316;2023-06-14T02:15:19;97279.6;;;16.96;62.787
17950;BME280;9100;48.700;9.316;2023-06-14T02:15:58;97283.2;;;16.95;63.133
17950;BME280;9100;48.700;9.316;2023-06-14T02:16:19;97291;;;16.95;63.283
17950;BME280;9100;48.700;9.316;2023-06-14T02:17:19;97285.6;;;16.96;63.533
17950;BME280;9100;48.700;9.316;2023-06-14T02:18:19;97291.8;;;16.95;63.877
17950;BME280;9100;48.700;9.316;2023-06-14T02:19:19;97289.20000000001;;;16.95;64.039
17950;BME280;9100;48.700;9.316;2023-06-14T02:20:19;97281.7;;;16.94;64.047
17950;BME280;9100;48.700;9.316;2023-06-14T02:20:58;97286.8;;;16.94;63.82
17950;BME280;9100;48.700;9.316;2023-06-14T02:21:19;97280.1;;;16.93;63.81
17950;BME280;9100;48.700;9.316;2023-06-14T02:22:19;97281.9;;;16.92;63.506
17950;BME280;9100;48.700;9.316;2023-06-14T02:23:19;97285.2;;;16.88;63.251
17950;BME280;9100;48.700;9.316;2023-06-14T02:24:19;97291.8;;;16.84;63.191
17950;BME280;9100;48.700;9.316;2023-06-14T02:25:19;97285.5;;;16.8;63.207
17950;BME280;9100;48.700;9.316;2023-06-14T02:25:58;97297.1;;;16.77;63.43
17950;BME280;9100;48.700;9.316;2023-06-14T02:26:19;97289.5;;;16.76;63.558
17950;BME280;9100;48.700;9.316;2023-06-14T02:27:19;97296;;;16.73;63.564
17950;BME280;9100;48.700;9.316;2023-06-14T02:28:19;97293.8;;;16.7;63.463
17950;BME280;9100;48.700;9.316;2023-06-14T02:29:19;97286.3;;;16.69;63.537
17950;BME280;9100;48.700;9.316;2023-06-14T02:30:19;97287.3;;;16.68;63.892
17950;BME280;9100;48.700;9.316;2023-06-14T02:30:58;97273.2;;;16.59;64.233
17950;BME280;9100;48.700;9.316;2023-06-14T02:31:19;97289.09999999999;;;16.67;64.3
17950;BME280;9100;48.700;9.316;2023-06-14T02:32:19;97284.5;;;16.69;64.475
17950;BME280;9100;48.700;9.316;2023-06-14T02:33:19;97287.3;;;16.68;64.657
17950;BME280;9100;48.700;9.316;2023-06-14T02:34:19;97284.40000000001;;;16.64;64.145
17950;BME280;9100;48.700;9.316;2023-06-14T02:35:19;97291.2;;;16.59;63.942
17950;BME280;9100;48.700;9.316;2023-06-14T02:35:58;97283.90000000001;;;16.56;63.938
17950;BME280;9100;48.700;9.316;2023-06-14T02:36:19;97292.7;;;16.55;63.937
17950;BME280;9100;48.700;9.316;2023-06-14T02:37:19;97291.09999999999;;;16.54;64.032
17950;BME280;9100;48.700;9.316;2023-06-14T02:38:19;97288;;;16.52;64.094
17950;BME280;9100;48.700;9.316;2023-06-14T02:39:19;97285.79999999999;;;16.48;64.315
17950;BME280;9100;48.700;9.316;2023-06-14T02:40:19;97290;;;16.49;64.705
17950;BME280;9100;48.700;9.316;2023-06-14T02:40:58;97286.8;;;16.47;64.854
17950;BME280;9100;48.700;9.316;2023-06-14T02:41:19;97286.8;;;16.47;64.95
17950;BME280;9100;48.700;9.316;2023-06-14T02:42:19;97289.4;;;16.47;65.316
17950;BME280;9100;48.700;9.316;2023-06-14T02:43:19;97284;;;16.49;65.781
17950;BME280;9100;48.700;9.316;2023-06-14T02:44:19;97285.79999999999;;;16.48;66.245
17950;BME280;9100;48.700;9.316;2023-06-14T02:45:19;97287.8;;;16.46;66.771
17950;BME280;9100;48.700;9.316;2023-06-14T02:45:58;97286.3;;;16.45;67.027
17950;BME280;9100;48.700;9.316;2023-06-14T02:46:19;97285.29999999999;;;16.46;67.072
17950;BME280;9100;48.700;9.316;2023-06-14T02:47:19;97287.59999999999;;;16.48;67.278
17950;BME280;9100;48.700;9.316;2023-06-14T02:48:19;97288.4;;;16.48;67.345
17950;BME280;9100;48.700;9.316;2023-06-14T02:49:19;97284.3;;;16.47;67.764
17950;BME280;9100;48.700;9.316;2023-06-14T02:50:19;97286.1;;;16.47;67.838
17950;BME280;9100;48.700;9.316;2023-06-14T02:50:58;97283.7;;;16.45;67.718
17950;BME280;9100;48.700;9.316;2023-06-14T02:51:19;97282.9;;;16.45;67.555
17950;BME280;9100;48.700;9.316;2023-06-14T02:52:19;97287.5;;;16.43;67.357
17950;BME280;9100;48.700;9.316;2023-06-14T02:53:19;97288.8;;;16.4;67.363
17950;BME280;9100;48.700;9.316;2023-06-14T02:54:19;97276.70000000001;;;16.34;67.365
17950;BME280;9100;48.700;9.316;2023-06-14T02:55:19;97288.5;;;16.3;67.564
17950;BME280;9100;48.700;9.316;2023-06-14T02:55:58;97280.4;;;16.27;67.786
17950;BME280;9100;48.700;9.316;2023-06-14T02:56:19;97286.40000000001;;;16.27;67.904
17950;BME280;9100;48.700;9.316;2023-06-14T02:57:19;97285.79999999999;;;16.25;68.203
17950;BME280;9100;48.700;9.316;2023-06-14T02:58:19;97286;;;16.24;68.47
17950;BME280;9100;48.700;9.316;2023-06-14T02:59:19;97281.9;;;16.23;68.663
17950;BME280;9100;48.700;9.316;2023-06-14T03:00:19;97289.8;;;16.21;68.734
17950;BME280;9100;48.700;9.316;2023-06-14T03:00:58;97279.7;;;16.2;68.927
17950;BME280;9100;48.700;9.316;2023-06-14T03:01:19;97290.09999999999;;;16.2;69.002
17950;BME280;9100;48.700;9.316;2023-06-14T03:02:19;97282.1;;;16.21;69.003
17950;BME280;9100;48.700;9.316;2023-06-14T03:03:19;97285.7;;;16.2;68.981
17950;BME280;9100;48.700;9.316;2023-06-14T03:04:19;97282.3;;;16.2;69.185
17950;BME280;9100;48.700;9.316;2023-06-14T03:05:19;97283.90000000001;;;16.21;69.133
17950;BME280;9100;48.700;9.316;2023-06-14T03:05:58;97287.7;;;16.18;69.054
17950;BME280;9100;48.700;9.316;2023-06-14T03:06:19;97288.5;;;16.19;69.119
17950;BME280;9100;48.700;9.316;2023-06-14T03:07:19;97293.9;;;16.17;69.353
17950;BME280;9100;48.700;9.316;2023-06-14T03:08:19;97289.70000000001;;;16.16;69.374
17950;BME280;9100;48.700;9.316;2023-06-14T03:09:20;97288.2;;;16.15;69.684
17950;BME280;9100;48.700;9.316;2023-06-14T03:10:19;97281.2;;;16.04;69.807
17950;BME280;9100;48.700;9.316;2023-06-14T03:10:58;97287.8;;;16.12;69.679
17950;BME280;9100;48.700;9.316;2023-06-14T03:11:19;97286;;;16.12;69.616
17950;BME280;9100;48.700;9.316;2023-06-14T03:12:19;97294.5;;;16.13;69.724
17950;BME280;9100;48.700;9.316;2023-06-14T03:13:19;97293.7;;;16.12;69.724
17950;BME280;9100;48.700;9.316;2023-06-14T03:14:19;97293.2;;;16.1;69.234
17950;BME280;9100;48.700;9.316;2023-06-14T03:15:19;97293.4;;;16.09;69.285
17950;BME280;9100;48.700;9.316;2023-06-14T03:15:58;97296.2;;;16.07;69.348
17950;BME280;9100;48.700;9.316;2023-06-14T03:16:19;97297;;;16.08;69.371
17950;BME280;9100;48.700;9.316;2023-06-14T03:17:19;97291.09999999999;;;16.07;69.735
17950;BME280;9100;48.700;9.316;2023-06-14T03:18:19;97291.09999999999;;;16.07;69.79
17950;BME280;9100;48.700;9.316;2023-06-14T03:19:19;97291.9;;;16.08;69.834
17950;BME280;9100;48.700;9.316;2023-06-14T03:20:19;97295.4;;;16.07;69.67
17950;BME280;9100;48.700;9.316;2023-06-14T03:20:58;97294.1;;;16.04;69.85
17950;BME280;9100;48.700;9.316;2023-06-14T03:21:19;97293.1;;;16.05;69.938
17950;BME280;9100;48.700;9.316;2023-06-14T03:22:19;97295.9;;;16.04;70.162
17950;BME280;9100;48.700;9.316;2023-06-14T03:23:19;97290.9;;;16.02;70.299
17950;BME280;9100;48.700;9.316;2023-06-14T03:24:19;97297.1;;;16.01;70.534
17950;BME280;9100;48.700;9.316;2023-06-14T03:25:19;97300.7;;;16;70.574
17950;BME280;9100;48.700;9.316;2023-06-14T03:25:58;97299.1;;;15.99;70.778
17950;BME280;9100;48.700;9.316;2023-06-14T03:26:19;97301.5;;;16;70.909
17950;BME280;9100;48.700;9.316;2023-06-14T03:27:19;97303.3;;;16;71.198
17950;BME280;9100;48.700;9.316;2023-06-14T03:28:19;97305.9;;;16;71.263
17950;BME280;9100;48.700;9.316;2023-06-14T03:29:19;97306.1;;;15.98;71.412
17950;BME280;9100;48.700;9.316;2023-06-14T03:30:19;97305.5;;;15.96;71.56
17950;BME280;9100;48.700;9.316;2023-06-14T03:30:58;97306.7;;;15.94;71.695
17950;BME280;9100;48.700;9.316;2023-06-14T03:31:19;97308.5;;;15.93;71.835
17950;BME280;9100;48.700;9.316;2023-06-14T03:32:19;97307.2;;;15.91;72.154
17950;BME280;9100;48.700;9.316;2023-06-14T03:33:19;97306.8;;;15.87;72.568
17950;BME280;9100;48.700;9.316;2023-06-14T03:34:19;97310.40000000001;;;15.86;72.922
17950;BME280;9100;48.700;9.316;2023-06-14T03:35:19;97306.5;;;15.84;73.239
17950;BME280;9100;48.700;9.316;2023-06-14T03:35:58;97310.79999999999;;;15.83;73.399
17950;BME280;9100;48.700;9.316;2023-06-14T03:36:19;97316.2;;;15.82;73.451
17950;BME280;9100;48.700;9.316;2023-06-14T03:37:19;97313.59999999999;;;15.82;73.193
17950;BME280;9100;48.700;9.316;2023-06-14T03:38:19;97325;;;15.81;73.332
17950;BME280;9100;48.700;9.316;2023-06-14T03:39:19;97315.7;;;15.8;73.707
17950;BME280;9100;48.700;9.316;2023-06-14T03:40:21;97314.5;;;15.76;73.818
17950;BME280;9100;48.700;9.316;2023-06-14T03:40:58;97316.5;;;15.74;73.858
17950;BME280;9100;48.700;9.316;2023-06-14T03:41:19;97322.5;;;15.74;73.891
17950;BME280;9100;48.700;9.316;2023-06-14T03:42:19;97313.4;;;15.72;74.199
17950;BME280;9100;48.700;9.316;2023-06-14T03:43:19;97318.5;;;15.72;74.382
17950;BME280;9100;48.700;9.316;2023-06-14T03:44:20;97319.3;;;15.72;74.694
17950;BME280;9100;48.700;9.316;2023-06-14T03:45:19;97321.1;;;15.72;74.565
17950;BME280;9100;48.700;9.316;2023-06-14T03:45:58;97320.3;;;15.71;74.563
17950;BME280;9100;48.700;9.316;2023-06-14T03:46:19;97325.3;;;15.73;74.632
17950;BME280;9100;48.700;9.316;2023-06-14T03:47:19;97323.7;;;15.72;74.77
17950;BME280;9100;48.700;9.316;2023-06-14T03:48:19;97329.6;;;15.72;74.813
17950;BME280;9100;48.700;9.316;2023-06-14T03:49:19;97321.1;;;15.72;75.136
17950;BME280;9100;48.700;9.316;2023-06-14T03:50:19;97326.70000000001;;;15.69;75.462
17950;BME280;9100;48.700;9.316;2023-06-14T03:50:58;97319.4;;;15.66;75.425
17950;BME280;9100;48.700;9.316;2023-06-14T03:51:19;97323.8;;;15.65;75.393
17950;BME280;9100;48.700;9.316;2023-06-14T03:52:19;97325;;;15.63;75.366
17950;BME280;9100;48.700;9.316;2023-06-14T03:53:19;97316.7;;;15.61;75.632
17950;BME280;9100;48.700;9.316;2023-06-14T03:54:19;97328;;;15.6;76.061
17950;BME280;9100;48.700;9.316;2023-06-14T03:55:19;97328.4;;;15.57;76.206
17950;BME280;9100;48.700;9.316;2023-06-14T03:55:58;97331.5;;;15.53;76.319
17950;BME280;9100;48.700;9.316;2023-06-14T03:56:19;97327.3;;;15.52;76.274
17950;BME280;9100;48.700;9.316;2023-06-14T03:57:19;97334.7;;;15.49;76.182
17950;BME280;9100;48.700;9.316;2023-06-14T03:58:19;97339.5;;;15.45;76.424
17950;BME280;9100;48.700;9.316;2023-06-14T03:59:20;97337.09999999999;;;15.44;76.646
17950;BME280;9100;48.700;9.316;2023-06-14T04:00:19;97334.7;;;15.42;76.718
17950;BME280;9100;48.700;9.316;2023-06-14T04:00:58;97331.2;;;15.43;76.883
17950;BME280;9100;48.700;9.316;2023-06-14T04:01:19;97332;;;15.44;77.065
17950;BME280;9100;48.700;9.316;2023-06-14T04:02:19;97335.90000000001;;;15.46;77.467
17950;BME280;9100;48.700;9.316;2023-06-14T04:03:19;97338.3;;;15.48;77.675
17950;BME280;9100;48.700;9.316;2023-06-14T04:04:19;97340.59999999999;;;15.49;77.958
17950;BME280;9100;48.700;9.316;2023-06-14T04:05:20;97338.09999999999;;;15.49;77.797
17950;BME280;9100;48.700;9.316;2023-06-14T04:05:58;97331.1;;;15.5;77.797
17950;BME280;9100;48.700;9.316;2023-06-14T04:06:19;97333.7;;;15.5;77.883
17950;BME280;9100;48.700;9.316;2023-06-14T04:07:19;97340.59999999999;;;15.49;78.194
17950;BME280;9100;48.700;9.316;2023-06-14T04:08:20;97340.59999999999;;;15.49;78.151
17950;BME280;9100;48.700;9.316;2023-06-14T04:09:19;97335.7;;;15.48;78.094
17950;BME280;9100;48.700;9.316;2023-06-14T04:10:19;97344.6;;;15.45;77.994
17950;BME280;9100;48.700;9.316;2023-06-14T04:10:58;97342;;;15.45;78.048
17950;BME280;9100;48.700;9.316;2023-06-14T04:11:19;97344.6;;;15.45;78.209
17950;BME280;9100;48.700;9.316;2023-06-14T04:12:19;97338.5;;;15.46;78.166
17950;BME280;9100;48.700;9.316;2023-06-14T04:13:19;97336.7;;;15.47;78.565
17950;BME280;9100;48.700;9.316;2023-06-14T04:14:20;97333.6;;;15.38;78.432
17950;BME280;9100;48.700;9.316;2023-06-14T04:15:19;97343.4;;;15.48;77.933
17950;BME280;9100;48.700;9.316;2023-06-14T04:15:58;97337.5;;;15.47;77.729
17950;BME280;9100;48.700;9.316;2023-06-14T04:16:19;97345;;;15.49;77.569
17950;BME280;9100;48.700;9.316;2023-06-14T04:17:19;97351.70000000001;;;15.5;77.205
17950;BME280;9100;48.700;9.316;2023-06-14T04:18:19;97344.8;;;15.5;77.379
17950;BME280;9100;48.700;9.316;2023-06-14T04:19:19;97341.4;;;15.5;77.313
17950;BME280;9100;48.700;9.316;2023-06-14T04:20:19;97346.6;;;15.5;77.302
17950;BME280;9100;48.700;9.316;2023-06-14T04:20:58;97343.2;;;15.49;77.366
17950;BME280;9100;48.700;9.316;2023-06-14T04:21:19;97352.5;;;15.5;77.368
17950;BME280;9100;48.700;9.316;2023-06-14T04:22:19;97346.1;;;15.53;77.662
17950;BME280;9100;48.700;9.316;2023-06-14T04:23:19;97353.7;;;15.55;77.719
17950;BME280;9100;48.700;9.316;2023-06-14T04:24:20;97355;;;15.57;77.464